Aérodrome :
LOGIN :

S'inscrire | Disclaimer

   EN    FR    IT 

 










Légende :    VFR   VFR Marginal   IFR   IFR Intensif   IFR Très Intensif
Visi : 
Plafond : 
>= 8 km
>= 3000ft
5 à 8 km
1000 à 3000 ft
1500m à 5 km
500 à 1000 ft
800 à 1500m
200 à 500 ft
< 800m
< 200 ft
Symboles :   Orages  Brouillard  Fortes neiges  Fortes précipitations  Vent > 20 kt
SIGMETs :   Divers  Orages  Givrage  Turbulence  Onde Orograph.  Cendres Volcan.






- Altitude de l'aérodrome : 479 ft
- Code IATA : DOL


LFRG - Deauville

DERNIER METAR :
  • 231900Z AUTO 01006KT 9999 VCTS ///CB 21/17 Q1008 TEMPO VRB15G35KT 2000 TSRAGR

METARs EXPIRÉS :
  • 231830Z AUTO 08007KT 050V110 9999 +TSRA ///CB 23/16 Q1008 TEMPO VRB15G35KT 2000 TSRAGR
  • 231800Z AUTO 08008KT 050V120 9999 ///CB 24/14 Q1008 TEMPO VRB15G35KT 2000 TSRAGR
  • 231730Z AUTO 07006KT 030V120 CAVOK 25/14 Q1008 TEMPO VRB15G35KT 2000 TSRAGR BKN020CB
  • 231700Z AUTO 07009KT 030V120 CAVOK 25/14 Q1009 TEMPO VRB15G35KT 2000 TSRAGR BKN020CB
  • 231630Z AUTO 07008KT 020V110 CAVOK 25/14 Q1009 TEMPO VRB15G35KT 2000 TSRAGR BKN020CB

TAF TAF LFRG
Valide du 23 à 15h jusqu'au 24 à 00h UTC


231400Z 2315/2324 09012KT CAVOK
TEMPO 2315/2324 4000 TSRA BKN040CB
PROB40
TEMPO 2316/2321 VRB15G35KT 2000 TSRAGR BKN020CB
BECMG 2321/2324 22010KT
ATIS : +33 2 31 65 65 36



MET'MAP, la Météo Aéronautique d'un coup d'oeil ! - Copyright ORBIFLY Décembre 2007 - Disclaimer

ORBIFLY MET'MAP TEAM :

Programmation & Développement : Alexandra Zaïnal
Sur une idée originale de : Baudouin d'Aumeries
Assistance à la programmation : Marc-Olivier Méhu
Soutien technique & logistique : Manuel Goepfert

Contact : metmap@orbifly.com




SOURCES & CREDITS :

   NOAA